sensor_id;sensor_type;location;lat;lon;timestamp;P1;durP1;ratioP1;P2;durP2;ratioP2
9496;SDS011;4786;51.270;4.456;2023-02-15T00:01:48;41.67;;;31.17;;
9496;SDS011;4786;51.270;4.456;2023-02-15T00:04:16;45.37;;;32.83;;
9496;SDS011;4786;51.270;4.456;2023-02-15T00:06:43;43.17;;;33.67;;
9496;SDS011;4786;51.270;4.456;2023-02-15T00:09:09;49.97;;;37.00;;
9496;SDS011;4786;51.270;4.456;2023-02-15T00:11:36;47.03;;;35.33;;
9496;SDS011;4786;51.270;4.456;2023-02-15T00:16:36;48.30;;;33.90;;
9496;SDS011;4786;51.270;4.456;2023-02-15T00:19:03;45.97;;;33.80;;
9496;SDS011;4786;51.270;4.456;2023-02-15T00:21:30;48.37;;;36.20;;
9496;SDS011;4786;51.270;4.456;2023-02-15T00:23:57;55.27;;;38.97;;
9496;SDS011;4786;51.270;4.456;2023-02-15T00:26:25;50.80;;;36.47;;
9496;SDS011;4786;51.270;4.456;2023-02-15T00:28:51;50.53;;;36.70;;
9496;SDS011;4786;51.270;4.456;2023-02-15T00:31:18;49.00;;;38.07;;
9496;SDS011;4786;51.270;4.456;2023-02-15T00:33:45;49.23;;;37.47;;
9496;SDS011;4786;51.270;4.456;2023-02-15T00:36:11;45.27;;;34.13;;
9496;SDS011;4786;51.270;4.456;2023-02-15T00:38:37;49.37;;;34.80;;
9496;SDS011;4786;51.270;4.456;2023-02-15T00:41:05;47.63;;;34.63;;
9496;SDS011;4786;51.270;4.456;2023-02-15T00:43:32;42.53;;;33.10;;
9496;SDS011;4786;51.270;4.456;2023-02-15T00:45:59;41.00;;;32.73;;
9496;SDS011;4786;51.270;4.456;2023-02-15T00:48:25;41.63;;;31.80;;
9496;SDS011;4786;51.270;4.456;2023-02-15T00:50:53;43.33;;;33.77;;
9496;SDS011;4786;51.270;4.456;2023-02-15T00:53:21;40.67;;;30.77;;
9496;SDS011;4786;51.270;4.456;2023-02-15T00:55:47;42.07;;;32.60;;
9496;SDS011;4786;51.270;4.456;2023-02-15T00:58:14;39.97;;;30.73;;
9496;SDS011;4786;51.270;4.456;2023-02-15T01:00:41;41.43;;;31.40;;
9496;SDS011;4786;51.270;4.456;2023-02-15T01:03:09;39.07;;;30.77;;
9496;SDS011;4786;51.270;4.456;2023-02-15T01:05:35;39.40;;;31.63;;
9496;SDS011;4786;51.270;4.456;2023-02-15T01:08:02;36.53;;;29.03;;
9496;SDS011;4786;51.270;4.456;2023-02-15T01:10:28;40.57;;;30.83;;
9496;SDS011;4786;51.270;4.456;2023-02-15T01:12:54;37.67;;;30.53;;
9496;SDS011;4786;51.270;4.456;2023-02-15T01:15:21;44.27;;;32.60;;
9496;SDS011;4786;51.270;4.456;2023-02-15T01:17:48;41.17;;;30.63;;
9496;SDS011;4786;51.270;4.456;2023-02-15T01:20:18;41.87;;;32.20;;
9496;SDS011;4786;51.270;4.456;2023-02-15T01:22:45;43.67;;;31.17;;
9496;SDS011;4786;51.270;4.456;2023-02-15T01:25:11;41.20;;;31.80;;
9496;SDS011;4786;51.270;4.456;2023-02-15T01:27:37;43.57;;;33.20;;
9496;SDS011;4786;51.270;4.456;2023-02-15T01:30:03;40.03;;;31.93;;
9496;SDS011;4786;51.270;4.456;2023-02-15T01:32:30;43.93;;;31.27;;
9496;SDS011;4786;51.270;4.456;2023-02-15T01:34:56;43.43;;;33.30;;
9496;SDS011;4786;51.270;4.456;2023-02-15T01:37:22;44.10;;;32.80;;
9496;SDS011;4786;51.270;4.456;2023-02-15T01:39:49;46.60;;;34.40;;
9496;SDS011;4786;51.270;4.456;2023-02-15T01:42:14;44.47;;;32.77;;
9496;SDS011;4786;51.270;4.456;2023-02-15T01:44:51;48.90;;;35.90;;
9496;SDS011;4786;51.270;4.456;2023-02-15T01:47:23;49.70;;;35.90;;
9496;SDS011;4786;51.270;4.456;2023-02-15T01:50:06;47.90;;;34.40;;
9496;SDS011;4786;51.270;4.456;2023-02-15T01:52:48;46.10;;;33.33;;
9496;SDS011;4786;51.270;4.456;2023-02-15T01:55:20;43.60;;;33.80;;
9496;SDS011;4786;51.270;4.456;2023-02-15T01:57:48;47.07;;;34.37;;
9496;SDS011;4786;51.270;4.456;2023-02-15T02:00:16;45.20;;;33.90;;
9496;SDS011;4786;51.270;4.456;2023-02-15T02:02:43;42.30;;;32.60;;
9496;SDS011;4786;51.270;4.456;2023-02-15T02:05:12;45.73;;;35.77;;
9496;SDS011;4786;51.270;4.456;2023-02-15T02:07:39;42.50;;;32.13;;
9496;SDS011;4786;51.270;4.456;2023-02-15T02:10:08;46.93;;;35.53;;
9496;SDS011;4786;51.270;4.456;2023-02-15T02:12:37;46.23;;;35.53;;
9496;SDS011;4786;51.270;4.456;2023-02-15T02:15:06;46.43;;;34.57;;
9496;SDS011;4786;51.270;4.456;2023-02-15T02:20:30;47.13;;;35.43;;
9496;SDS011;4786;51.270;4.456;2023-02-15T02:34:38;44.13;;;32.43;;
9496;SDS011;4786;51.270;4.456;2023-02-15T02:42:25;39.83;;;31.80;;
9496;SDS011;4786;51.270;4.456;2023-02-15T02:45:07;40.00;;;32.47;;
9496;SDS011;4786;51.270;4.456;2023-02-15T02:48:05;41.23;;;32.07;;
9496;SDS011;4786;51.270;4.456;2023-02-15T02:50:38;40.43;;;31.67;;
9496;SDS011;4786;51.270;4.456;2023-02-15T02:53:05;42.47;;;32.80;;
9496;SDS011;4786;51.270;4.456;2023-02-15T02:55:32;36.57;;;29.27;;
9496;SDS011;4786;51.270;4.456;2023-02-15T02:58:06;39.77;;;30.90;;
9496;SDS011;4786;51.270;4.456;2023-02-15T03:00:56;37.40;;;29.83;;
9496;SDS011;4786;51.270;4.456;2023-02-15T03:03:34;37.17;;;30.33;;
9496;SDS011;4786;51.270;4.456;2023-02-15T03:06:08;36.47;;;28.57;;
9496;SDS011;4786;51.270;4.456;2023-02-15T03:08:42;38.33;;;30.40;;
9496;SDS011;4786;51.270;4.456;2023-02-15T03:11:12;39.57;;;30.93;;
9496;SDS011;4786;51.270;4.456;2023-02-15T03:13:38;40.13;;;31.93;;
9496;SDS011;4786;51.270;4.456;2023-02-15T03:16:06;40.90;;;31.50;;
9496;SDS011;4786;51.270;4.456;2023-02-15T03:18:57;40.03;;;31.87;;
9496;SDS011;4786;51.270;4.456;2023-02-15T03:27:24;39.30;;;31.03;;
9496;SDS011;4786;51.270;4.456;2023-02-15T03:29:57;41.13;;;32.00;;
9496;SDS011;4786;51.270;4.456;2023-02-15T03:32:24;42.63;;;31.53;;
9496;SDS011;4786;51.270;4.456;2023-02-15T03:34:53;41.13;;;32.80;;
9496;SDS011;4786;51.270;4.456;2023-02-15T03:37:23;43.50;;;32.97;;
9496;SDS011;4786;51.270;4.456;2023-02-15T03:40:03;43.20;;;32.57;;
9496;SDS011;4786;51.270;4.456;2023-02-15T03:42:52;44.97;;;33.73;;
9496;SDS011;4786;51.270;4.456;2023-02-15T03:45:26;44.57;;;33.67;;
9496;SDS011;4786;51.270;4.456;2023-02-15T03:47:55;43.43;;;33.10;;
9496;SDS011;4786;51.270;4.456;2023-02-15T03:50:27;41.63;;;33.17;;
9496;SDS011;4786;51.270;4.456;2023-02-15T03:53:15;41.13;;;32.07;;
9496;SDS011;4786;51.270;4.456;2023-02-15T03:55:53;43.00;;;32.50;;
9496;SDS011;4786;51.270;4.456;2023-02-15T03:58:19;41.03;;;32.53;;
9496;SDS011;4786;51.270;4.456;2023-02-15T04:01:04;43.50;;;34.73;;
9496;SDS011;4786;51.270;4.456;2023-02-15T04:03:56;44.57;;;34.07;;
9496;SDS011;4786;51.270;4.456;2023-02-15T04:06:26;42.97;;;35.33;;
9496;SDS011;4786;51.270;4.456;2023-02-15T04:08:52;43.97;;;33.07;;
9496;SDS011;4786;51.270;4.456;2023-02-15T04:11:36;43.33;;;33.57;;
9496;SDS011;4786;51.270;4.456;2023-02-15T04:14:02;42.70;;;33.03;;
9496;SDS011;4786;51.270;4.456;2023-02-15T04:16:47;46.73;;;36.37;;
9496;SDS011;4786;51.270;4.456;2023-02-15T04:19:14;44.57;;;34.53;;
9496;SDS011;4786;51.270;4.456;2023-02-15T04:21:58;43.73;;;34.10;;
9496;SDS011;4786;51.270;4.456;2023-02-15T04:24:42;46.37;;;34.87;;
9496;SDS011;4786;51.270;4.456;2023-02-15T04:27:26;46.87;;;36.47;;
9496;SDS011;4786;51.270;4.456;2023-02-15T04:29:52;45.80;;;37.07;;
9496;SDS011;4786;51.270;4.456;2023-02-15T04:32:18;44.67;;;35.37;;
9496;SDS011;4786;51.270;4.456;2023-02-15T04:34:44;45.13;;;34.30;;
9496;SDS011;4786;51.270;4.456;2023-02-15T04:37:10;48.10;;;36.17;;
9496;SDS011;4786;51.270;4.456;2023-02-15T04:39:35;44.20;;;34.90;;
9496;SDS011;4786;51.270;4.456;2023-02-15T04:42:01;48.63;;;37.87;;
9496;SDS011;4786;51.270;4.456;2023-02-15T04:44:27;45.87;;;35.53;;
9496;SDS011;4786;51.270;4.456;2023-02-15T04:46:53;46.83;;;35.30;;
9496;SDS011;4786;51.270;4.456;2023-02-15T04:49:19;43.40;;;33.23;;
9496;SDS011;4786;51.270;4.456;2023-02-15T04:51:45;40.90;;;32.23;;
9496;SDS011;4786;51.270;4.456;2023-02-15T04:54:11;45.00;;;33.97;;
9496;SDS011;4786;51.270;4.456;2023-02-15T04:56:37;44.00;;;33.40;;
9496;SDS011;4786;51.270;4.456;2023-02-15T04:59:05;42.63;;;35.07;;
9496;SDS011;4786;51.270;4.456;2023-02-15T05:01:31;45.33;;;35.30;;
9496;SDS011;4786;51.270;4.456;2023-02-15T05:03:56;43.80;;;34.10;;
9496;SDS011;4786;51.270;4.456;2023-02-15T05:06:23;45.40;;;34.90;;
9496;SDS011;4786;51.270;4.456;2023-02-15T05:08:49;45.87;;;34.77;;
9496;SDS011;4786;51.270;4.456;2023-02-15T05:11:15;50.07;;;36.60;;
9496;SDS011;4786;51.270;4.456;2023-02-15T05:13:41;48.90;;;35.83;;
9496;SDS011;4786;51.270;4.456;2023-02-15T05:16:07;49.30;;;37.03;;
9496;SDS011;4786;51.270;4.456;2023-02-15T05:18:33;49.23;;;35.83;;
9496;SDS011;4786;51.270;4.456;2023-02-15T05:20:59;47.13;;;36.07;;
9496;SDS011;4786;51.270;4.456;2023-02-15T05:23:25;47.23;;;35.53;;
9496;SDS011;4786;51.270;4.456;2023-02-15T05:25:52;51.70;;;36.47;;
9496;SDS011;4786;51.270;4.456;2023-02-15T05:28:36;54.07;;;38.77;;
9496;SDS011;4786;51.270;4.456;2023-02-15T05:31:07;48.73;;;36.87;;
9496;SDS011;4786;51.270;4.456;2023-02-15T05:33:36;50.57;;;36.73;;
9496;SDS011;4786;51.270;4.456;2023-02-15T05:36:03;46.70;;;35.87;;
9496;SDS011;4786;51.270;4.456;2023-02-15T05:38:29;48.40;;;36.73;;
9496;SDS011;4786;51.270;4.456;2023-02-15T05:40:56;48.40;;;37.00;;
9496;SDS011;4786;51.270;4.456;2023-02-15T05:43:22;48.97;;;36.93;;
9496;SDS011;4786;51.270;4.456;2023-02-15T05:45:49;49.23;;;35.40;;
9496;SDS011;4786;51.270;4.456;2023-02-15T05:48:16;45.60;;;34.10;;
9496;SDS011;4786;51.270;4.456;2023-02-15T05:50:43;46.77;;;35.63;;
9496;SDS011;4786;51.270;4.456;2023-02-15T05:53:10;43.20;;;35.27;;
9496;SDS011;4786;51.270;4.456;2023-02-15T05:55:39;46.43;;;35.10;;
9496;SDS011;4786;51.270;4.456;2023-02-15T05:58:06;45.00;;;34.67;;
9496;SDS011;4786;51.270;4.456;2023-02-15T06:00:33;44.33;;;32.50;;
9496;SDS011;4786;51.270;4.456;2023-02-15T06:02:59;47.37;;;34.30;;
9496;SDS011;4786;51.270;4.456;2023-02-15T06:05:25;46.17;;;35.43;;
9496;SDS011;4786;51.270;4.456;2023-02-15T06:07:51;45.77;;;34.63;;
9496;SDS011;4786;51.270;4.456;2023-02-15T06:10:17;44.90;;;34.70;;
9496;SDS011;4786;51.270;4.456;2023-02-15T06:12:43;46.13;;;35.17;;
9496;SDS011;4786;51.270;4.456;2023-02-15T06:15:09;46.40;;;34.53;;
9496;SDS011;4786;51.270;4.456;2023-02-15T06:17:35;46.73;;;35.23;;
9496;SDS011;4786;51.270;4.456;2023-02-15T06:20:01;48.63;;;35.10;;
9496;SDS011;4786;51.270;4.456;2023-02-15T06:22:27;48.33;;;35.37;;
9496;SDS011;4786;51.270;4.456;2023-02-15T06:24:53;53.37;;;38.60;;
9496;SDS011;4786;51.270;4.456;2023-02-15T06:27:18;46.30;;;35.07;;
9496;SDS011;4786;51.270;4.456;2023-02-15T06:29:45;46.57;;;35.20;;
9496;SDS011;4786;51.270;4.456;2023-02-15T06:32:10;48.50;;;36.27;;
9496;SDS011;4786;51.270;4.456;2023-02-15T06:34:36;54.97;;;36.87;;
9496;SDS011;4786;51.270;4.456;2023-02-15T06:37:02;47.37;;;35.07;;
9496;SDS011;4786;51.270;4.456;2023-02-15T06:39:28;47.93;;;35.97;;
9496;SDS011;4786;51.270;4.456;2023-02-15T06:41:54;49.87;;;36.17;;
9496;SDS011;4786;51.270;4.456;2023-02-15T06:44:20;47.07;;;35.83;;
9496;SDS011;4786;51.270;4.456;2023-02-15T06:46:46;49.43;;;35.57;;
9496;SDS011;4786;51.270;4.456;2023-02-15T06:49:12;45.70;;;34.40;;
9496;SDS011;4786;51.270;4.456;2023-02-15T06:51:38;45.80;;;33.10;;
9496;SDS011;4786;51.270;4.456;2023-02-15T06:54:04;48.77;;;35.67;;
9496;SDS011;4786;51.270;4.456;2023-02-15T06:56:30;44.50;;;35.03;;
9496;SDS011;4786;51.270;4.456;2023-02-15T06:58:57;49.37;;;35.67;;
9496;SDS011;4786;51.270;4.456;2023-02-15T07:01:23;45.37;;;35.07;;
9496;SDS011;4786;51.270;4.456;2023-02-15T07:03:49;49.00;;;36.07;;
9496;SDS011;4786;51.270;4.456;2023-02-15T07:06:15;48.30;;;34.87;;
9496;SDS011;4786;51.270;4.456;2023-02-15T07:08:41;44.30;;;33.67;;
9496;SDS011;4786;51.270;4.456;2023-02-15T07:11:06;46.43;;;35.83;;
9496;SDS011;4786;51.270;4.456;2023-02-15T07:13:51;48.10;;;33.80;;
9496;SDS011;4786;51.270;4.456;2023-02-15T07:16:17;47.40;;;35.67;;
9496;SDS011;4786;51.270;4.456;2023-02-15T07:18:44;44.27;;;34.63;;
9496;SDS011;4786;51.270;4.456;2023-02-15T07:21:10;51.03;;;36.87;;
9496;SDS011;4786;51.270;4.456;2023-02-15T07:23:36;48.40;;;36.80;;
9496;SDS011;4786;51.270;4.456;2023-02-15T07:26:03;54.07;;;38.90;;
9496;SDS011;4786;51.270;4.456;2023-02-15T07:28:32;51.80;;;37.47;;
9496;SDS011;4786;51.270;4.456;2023-02-15T07:31:00;52.47;;;38.00;;
9496;SDS011;4786;51.270;4.456;2023-02-15T07:33:27;49.47;;;35.73;;
9496;SDS011;4786;51.270;4.456;2023-02-15T07:35:55;56.70;;;39.03;;
9496;SDS011;4786;51.270;4.456;2023-02-15T07:38:24;47.63;;;36.83;;
9496;SDS011;4786;51.270;4.456;2023-02-15T07:40:51;49.30;;;36.60;;
9496;SDS011;4786;51.270;4.456;2023-02-15T07:43:17;48.40;;;36.63;;
9496;SDS011;4786;51.270;4.456;2023-02-15T07:45:43;50.17;;;36.70;;
9496;SDS011;4786;51.270;4.456;2023-02-15T07:48:09;48.40;;;37.03;;
9496;SDS011;4786;51.270;4.456;2023-02-15T07:50:35;47.97;;;36.60;;
9496;SDS011;4786;51.270;4.456;2023-02-15T07:53:01;49.57;;;36.20;;
9496;SDS011;4786;51.270;4.456;2023-02-15T07:55:27;53.57;;;37.57;;
9496;SDS011;4786;51.270;4.456;2023-02-15T07:57:53;49.87;;;38.27;;
9496;SDS011;4786;51.270;4.456;2023-02-15T08:00:20;46.23;;;37.30;;
9496;SDS011;4786;51.270;4.456;2023-02-15T08:02:55;47.73;;;36.93;;
9496;SDS011;4786;51.270;4.456;2023-02-15T08:05:41;47.63;;;35.70;;
9496;SDS011;4786;51.270;4.456;2023-02-15T08:08:08;53.13;;;36.73;;
9496;SDS011;4786;51.270;4.456;2023-02-15T08:10:57;52.23;;;36.13;;
9496;SDS011;4786;51.270;4.456;2023-02-15T08:13:43;46.03;;;35.13;;
9496;SDS011;4786;51.270;4.456;2023-02-15T08:16:19;44.97;;;34.83;;
9496;SDS011;4786;51.270;4.456;2023-02-15T08:18:45;50.90;;;36.13;;
9496;SDS011;4786;51.270;4.456;2023-02-15T08:21:11;45.97;;;35.07;;
9496;SDS011;4786;51.270;4.456;2023-02-15T08:23:36;46.17;;;34.50;;
9496;SDS011;4786;51.270;4.456;2023-02-15T08:26:02;44.20;;;33.83;;
9496;SDS011;4786;51.270;4.456;2023-02-15T08:28:29;44.23;;;34.00;;
9496;SDS011;4786;51.270;4.456;2023-02-15T08:30:55;51.73;;;36.40;;
9496;SDS011;4786;51.270;4.456;2023-02-15T08:33:28;46.90;;;35.47;;
9496;SDS011;4786;51.270;4.456;2023-02-15T08:35:54;45.73;;;35.00;;
9496;SDS011;4786;51.270;4.456;2023-02-15T08:38:20;44.00;;;33.27;;
9496;SDS011;4786;51.270;4.456;2023-02-15T08:40:45;41.90;;;32.83;;
9496;SDS011;4786;51.270;4.456;2023-02-15T08:43:11;40.27;;;31.07;;
9496;SDS011;4786;51.270;4.456;2023-02-15T08:45:37;42.83;;;31.83;;
9496;SDS011;4786;51.270;4.456;2023-02-15T08:48:03;40.27;;;31.00;;
9496;SDS011;4786;51.270;4.456;2023-02-15T08:50:29;44.20;;;33.17;;
9496;SDS011;4786;51.270;4.456;2023-02-15T08:52:55;38.33;;;31.03;;
9496;SDS011;4786;51.270;4.456;2023-02-15T08:55:21;43.03;;;34.67;;
9496;SDS011;4786;51.270;4.456;2023-02-15T08:57:47;43.30;;;32.07;;
9496;SDS011;4786;51.270;4.456;2023-02-15T09:00:13;42.03;;;31.07;;
9496;SDS011;4786;51.270;4.456;2023-02-15T09:02:39;42.97;;;31.83;;
9496;SDS011;4786;51.270;4.456;2023-02-15T09:05:05;45.53;;;33.80;;
9496;SDS011;4786;51.270;4.456;2023-02-15T09:07:32;44.20;;;32.80;;
9496;SDS011;4786;51.270;4.456;2023-02-15T09:09:58;44.87;;;33.23;;
9496;SDS011;4786;51.270;4.456;2023-02-15T09:12:24;45.30;;;34.00;;
9496;SDS011;4786;51.270;4.456;2023-02-15T09:14:50;44.27;;;33.37;;
9496;SDS011;4786;51.270;4.456;2023-02-15T09:17:16;41.77;;;33.67;;
9496;SDS011;4786;51.270;4.456;2023-02-15T09:19:42;44.30;;;32.77;;
9496;SDS011;4786;51.270;4.456;2023-02-15T09:22:08;43.23;;;33.77;;
9496;SDS011;4786;51.270;4.456;2023-02-15T09:24:34;41.30;;;32.87;;
9496;SDS011;4786;51.270;4.456;2023-02-15T09:27:00;44.57;;;33.73;;
9496;SDS011;4786;51.270;4.456;2023-02-15T09:29:26;39.33;;;32.57;;
9496;SDS011;4786;51.270;4.456;2023-02-15T09:31:52;43.17;;;32.30;;
9496;SDS011;4786;51.270;4.456;2023-02-15T09:34:20;45.50;;;34.17;;
9496;SDS011;4786;51.270;4.456;2023-02-15T09:36:47;49.60;;;33.73;;
9496;SDS011;4786;51.270;4.456;2023-02-15T09:39:17;43.43;;;33.27;;
9496;SDS011;4786;51.270;4.456;2023-02-15T10:06:27;43.30;;;32.77;;
9496;SDS011;4786;51.270;4.456;2023-02-15T10:09:14;44.53;;;32.53;;
9496;SDS011;4786;51.270;4.456;2023-02-15T10:11:57;42.33;;;33.83;;
9496;SDS011;4786;51.270;4.456;2023-02-15T10:14:39;42.93;;;33.47;;
9496;SDS011;4786;51.270;4.456;2023-02-15T10:23:21;41.47;;;30.40;;
9496;SDS011;4786;51.270;4.456;2023-02-15T10:31:22;37.97;;;29.73;;
9496;SDS011;4786;51.270;4.456;2023-02-15T10:45:06;44.30;;;29.63;;
9496;SDS011;4786;51.270;4.456;2023-02-15T10:47:52;36.87;;;28.13;;
9496;SDS011;4786;51.270;4.456;2023-02-15T10:50:34;38.90;;;29.23;;
9496;SDS011;4786;51.270;4.456;2023-02-15T11:06:27;38.37;;;27.53;;
9496;SDS011;4786;51.270;4.456;2023-02-15T11:09:00;38.50;;;26.83;;
9496;SDS011;4786;51.270;4.456;2023-02-15T11:11:30;43.43;;;29.67;;
9496;SDS011;4786;51.270;4.456;2023-02-15T11:14:03;35.93;;;28.27;;
9496;SDS011;4786;51.270;4.456;2023-02-15T11:16:39;38.93;;;28.87;;
9496;SDS011;4786;51.270;4.456;2023-02-15T11:19:14;41.77;;;29.87;;
9496;SDS011;4786;51.270;4.456;2023-02-15T11:21:44;37.73;;;28.87;;
9496;SDS011;4786;51.270;4.456;2023-02-15T11:24:16;37.13;;;29.27;;
9496;SDS011;4786;51.270;4.456;2023-02-15T11:27:04;35.83;;;27.83;;
9496;SDS011;4786;51.270;4.456;2023-02-15T11:29:50;37.33;;;27.70;;
9496;SDS011;4786;51.270;4.456;2023-02-15T11:32:30;36.10;;;28.17;;
9496;SDS011;4786;51.270;4.456;2023-02-15T11:40:21;38.27;;;28.10;;
9496;SDS011;4786;51.270;4.456;2023-02-15T11:45:47;33.03;;;25.87;;
9496;SDS011;4786;51.270;4.456;2023-02-15T11:48:13;33.53;;;25.73;;
9496;SDS011;4786;51.270;4.456;2023-02-15T11:50:41;34.63;;;27.73;;
9496;SDS011;4786;51.270;4.456;2023-02-15T11:53:18;38.03;;;26.73;;
9496;SDS011;4786;51.270;4.456;2023-02-15T11:55:47;41.40;;;29.83;;
9496;SDS011;4786;51.270;4.456;2023-02-15T12:00:47;36.03;;;26.23;;
9496;SDS011;4786;51.270;4.456;2023-02-15T12:03:19;32.23;;;25.43;;
9496;SDS011;4786;51.270;4.456;2023-02-15T12:05:47;41.37;;;28.37;;
9496;SDS011;4786;51.270;4.456;2023-02-15T12:08:19;37.87;;;28.60;;
9496;SDS011;4786;51.270;4.456;2023-02-15T12:10:53;39.57;;;28.63;;
9496;SDS011;4786;51.270;4.456;2023-02-15T12:13:25;38.43;;;27.93;;
9496;SDS011;4786;51.270;4.456;2023-02-15T12:15:55;45.17;;;27.97;;
9496;SDS011;4786;51.270;4.456;2023-02-15T12:18:31;37.93;;;27.37;;
9496;SDS011;4786;51.270;4.456;2023-02-15T12:21:03;34.80;;;26.63;;
9496;SDS011;4786;51.270;4.456;2023-02-15T12:23:32;36.70;;;26.43;;
9496;SDS011;4786;51.270;4.456;2023-02-15T12:25:58;35.83;;;26.30;;
9496;SDS011;4786;51.270;4.456;2023-02-15T12:31:02;41.70;;;28.07;;
9496;SDS011;4786;51.270;4.456;2023-02-15T12:33:35;34.87;;;27.57;;
9496;SDS011;4786;51.270;4.456;2023-02-15T12:39:02;42.40;;;29.53;;
9496;SDS011;4786;51.270;4.456;2023-02-15T12:41:30;37.87;;;28.90;;
9496;SDS011;4786;51.270;4.456;2023-02-15T12:44:04;36.80;;;28.47;;
9496;SDS011;4786;51.270;4.456;2023-02-15T12:46:55;37.90;;;28.37;;
9496;SDS011;4786;51.270;4.456;2023-02-15T12:49:29;36.50;;;28.43;;
9496;SDS011;4786;51.270;4.456;2023-02-15T12:52:00;36.80;;;28.57;;
9496;SDS011;4786;51.270;4.456;2023-02-15T12:54:41;35.23;;;26.60;;
9496;SDS011;4786;51.270;4.456;2023-02-15T12:57:21;35.90;;;27.70;;
9496;SDS011;4786;51.270;4.456;2023-02-15T13:02:35;43.80;;;28.50;;
9496;SDS011;4786;51.270;4.456;2023-02-15T13:05:13;40.50;;;28.33;;
9496;SDS011;4786;51.270;4.456;2023-02-15T13:08:01;40.63;;;28.40;;
9496;SDS011;4786;51.270;4.456;2023-02-15T13:14:03;40.70;;;27.97;;
9496;SDS011;4786;51.270;4.456;2023-02-15T13:17:04;35.27;;;26.03;;
9496;SDS011;4786;51.270;4.456;2023-02-15T13:19:34;36.40;;;27.70;;
9496;SDS011;4786;51.270;4.456;2023-02-15T13:22:14;36.07;;;27.10;;
9496;SDS011;4786;51.270;4.456;2023-02-15T13:24:47;38.57;;;28.50;;
9496;SDS011;4786;51.270;4.456;2023-02-15T13:27:21;40.83;;;27.93;;
9496;SDS011;4786;51.270;4.456;2023-02-15T13:29:51;36.23;;;27.90;;
9496;SDS011;4786;51.270;4.456;2023-02-15T13:35:23;41.30;;;28.67;;
9496;SDS011;4786;51.270;4.456;2023-02-15T13:38:11;36.97;;;28.20;;
9496;SDS011;4786;51.270;4.456;2023-02-15T13:40:58;39.70;;;28.00;;
9496;SDS011;4786;51.270;4.456;2023-02-15T13:52:22;38.33;;;27.50;;
9496;SDS011;4786;51.270;4.456;2023-02-15T14:23:30;37.03;;;27.53;;
9496;SDS011;4786;51.270;4.456;2023-02-15T14:26:05;38.93;;;29.27;;
9496;SDS011;4786;51.270;4.456;2023-02-15T14:28:43;36.07;;;28.63;;
9496;SDS011;4786;51.270;4.456;2023-02-15T14:31:37;34.53;;;27.17;;
9496;SDS011;4786;51.270;4.456;2023-02-15T14:34:15;36.90;;;28.47;;
9496;SDS011;4786;51.270;4.456;2023-02-15T14:36:46;35.20;;;27.23;;
9496;SDS011;4786;51.270;4.456;2023-02-15T14:50:40;38.33;;;28.87;;
9496;SDS011;4786;51.270;4.456;2023-02-15T14:56:04;37.33;;;28.80;;
9496;SDS011;4786;51.270;4.456;2023-02-15T14:58:30;38.63;;;29.33;;
9496;SDS011;4786;51.270;4.456;2023-02-15T15:01:03;40.13;;;29.67;;
9496;SDS011;4786;51.270;4.456;2023-02-15T15:03:31;38.80;;;29.83;;
9496;SDS011;4786;51.270;4.456;2023-02-15T15:05:57;35.73;;;25.30;;
9496;SDS011;4786;51.270;4.456;2023-02-15T15:08:47;32.70;;;26.37;;
9496;SDS011;4786;51.270;4.456;2023-02-15T15:18:55;35.07;;;28.63;;
9496;SDS011;4786;51.270;4.456;2023-02-15T15:32:38;32.87;;;24.57;;
9496;SDS011;4786;51.270;4.456;2023-02-15T15:35:21;31.60;;;25.50;;
9496;SDS011;4786;51.270;4.456;2023-02-15T15:43:24;30.03;;;24.90;;
9496;SDS011;4786;51.270;4.456;2023-02-15T15:49:18;36.30;;;27.87;;
9496;SDS011;4786;51.270;4.456;2023-02-15T15:51:46;40.27;;;28.63;;
9496;SDS011;4786;51.270;4.456;2023-02-15T15:54:16;35.33;;;27.47;;
9496;SDS011;4786;51.270;4.456;2023-02-15T15:56:49;34.60;;;27.60;;
9496;SDS011;4786;51.270;4.456;2023-02-15T15:59:26;38.57;;;27.83;;
9496;SDS011;4786;51.270;4.456;2023-02-15T16:01:54;35.07;;;27.83;;
9496;SDS011;4786;51.270;4.456;2023-02-15T16:04:28;35.20;;;27.97;;
9496;SDS011;4786;51.270;4.456;2023-02-15T16:06:56;38.63;;;28.27;;
9496;SDS011;4786;51.270;4.456;2023-02-15T16:09:37;37.57;;;28.70;;
9496;SDS011;4786;51.270;4.456;2023-02-15T16:12:04;37.10;;;28.00;;
9496;SDS011;4786;51.270;4.456;2023-02-15T16:14:39;35.77;;;28.80;;
9496;SDS011;4786;51.270;4.456;2023-02-15T16:17:08;39.03;;;28.70;;
9496;SDS011;4786;51.270;4.456;2023-02-15T16:19:43;34.83;;;27.20;;
9496;SDS011;4786;51.270;4.456;2023-02-15T16:22:19;38.57;;;30.00;;
9496;SDS011;4786;51.270;4.456;2023-02-15T16:24:52;34.20;;;26.87;;
9496;SDS011;4786;51.270;4.456;2023-02-15T16:27:42;34.90;;;27.30;;
9496;SDS011;4786;51.270;4.456;2023-02-15T16:30:17;34.77;;;27.27;;
9496;SDS011;4786;51.270;4.456;2023-02-15T16:35:56;36.27;;;28.17;;
9496;SDS011;4786;51.270;4.456;2023-02-15T16:41:11;36.77;;;27.40;;
9496;SDS011;4786;51.270;4.456;2023-02-15T16:43:38;39.93;;;28.60;;
9496;SDS011;4786;51.270;4.456;2023-02-15T16:46:12;37.90;;;28.40;;
9496;SDS011;4786;51.270;4.456;2023-02-15T16:48:44;38.63;;;28.70;;
9496;SDS011;4786;51.270;4.456;2023-02-15T16:51:18;36.60;;;27.20;;
9496;SDS011;4786;51.270;4.456;2023-02-15T16:53:47;36.27;;;28.80;;
9496;SDS011;4786;51.270;4.456;2023-02-15T16:56:14;35.03;;;27.93;;
9496;SDS011;4786;51.270;4.456;2023-02-15T16:58:42;33.07;;;25.90;;
9496;SDS011;4786;51.270;4.456;2023-02-15T17:01:11;39.00;;;27.80;;
9496;SDS011;4786;51.270;4.456;2023-02-15T17:03:40;34.93;;;27.23;;
9496;SDS011;4786;51.270;4.456;2023-02-15T17:06:26;36.10;;;26.23;;
9496;SDS011;4786;51.270;4.456;2023-02-15T17:09:02;36.70;;;28.13;;
9496;SDS011;4786;51.270;4.456;2023-02-15T17:11:34;37.97;;;28.63;;
9496;SDS011;4786;51.270;4.456;2023-02-15T17:16:32;33.73;;;27.10;;
9496;SDS011;4786;51.270;4.456;2023-02-15T17:19:19;36.77;;;26.67;;
9496;SDS011;4786;51.270;4.456;2023-02-15T17:21:52;28.87;;;23.00;;
9496;SDS011;4786;51.270;4.456;2023-02-15T17:27:07;38.80;;;28.33;;
9496;SDS011;4786;51.270;4.456;2023-02-15T17:29:46;34.43;;;25.87;;
9496;SDS011;4786;51.270;4.456;2023-02-15T17:32:19;31.37;;;24.77;;
9496;SDS011;4786;51.270;4.456;2023-02-15T17:34:56;31.67;;;25.47;;
9496;SDS011;4786;51.270;4.456;2023-02-15T17:40:20;36.53;;;26.33;;
9496;SDS011;4786;51.270;4.456;2023-02-15T17:42:48;35.63;;;26.93;;
9496;SDS011;4786;51.270;4.456;2023-02-15T17:45:15;33.67;;;26.03;;
9496;SDS011;4786;51.270;4.456;2023-02-15T17:47:43;38.07;;;29.37;;
9496;SDS011;4786;51.270;4.456;2023-02-15T17:50:22;34.57;;;26.90;;
9496;SDS011;4786;51.270;4.456;2023-02-15T17:52:50;35.27;;;26.47;;
9496;SDS011;4786;51.270;4.456;2023-02-15T17:55:19;30.23;;;23.10;;
9496;SDS011;4786;51.270;4.456;2023-02-15T17:58:06;38.63;;;30.33;;
9496;SDS011;4786;51.270;4.456;2023-02-15T18:00:33;35.57;;;28.17;;
9496;SDS011;4786;51.270;4.456;2023-02-15T18:03:45;36.60;;;29.87;;
9496;SDS011;4786;51.270;4.456;2023-02-15T18:06:32;39.30;;;30.63;;
9496;SDS011;4786;51.270;4.456;2023-02-15T18:09:18;41.30;;;31.13;;
9496;SDS011;4786;51.270;4.456;2023-02-15T18:14:45;40.67;;;31.40;;
9496;SDS011;4786;51.270;4.456;2023-02-15T18:17:12;39.53;;;31.50;;
9496;SDS011;4786;51.270;4.456;2023-02-15T18:19:40;38.00;;;29.57;;
9496;SDS011;4786;51.270;4.456;2023-02-15T18:22:09;39.63;;;30.13;;
9496;SDS011;4786;51.270;4.456;2023-02-15T18:24:37;38.60;;;30.33;;
9496;SDS011;4786;51.270;4.456;2023-02-15T18:27:04;41.00;;;30.93;;
9496;SDS011;4786;51.270;4.456;2023-02-15T18:29:32;41.40;;;31.63;;
9496;SDS011;4786;51.270;4.456;2023-02-15T18:31:59;41.13;;;31.23;;
9496;SDS011;4786;51.270;4.456;2023-02-15T18:34:29;40.83;;;32.20;;
9496;SDS011;4786;51.270;4.456;2023-02-15T18:37:00;39.70;;;28.67;;
9496;SDS011;4786;51.270;4.456;2023-02-15T18:42:05;35.83;;;29.33;;
9496;SDS011;4786;51.270;4.456;2023-02-15T18:44:32;39.30;;;31.73;;